sensor_id;sensor_type;location;lat;lon;timestamp;P1;durP1;ratioP1;P2;durP2;ratioP2
11151;SDS011;5630;49.342;10.802;2024-03-02T00:00:00;22.30;;;18.83;;
11151;SDS011;5630;49.342;10.802;2024-03-02T00:02:34;23.73;;;18.63;;
11151;SDS011;5630;49.342;10.802;2024-03-02T00:05:05;24.83;;;18.33;;
11151;SDS011;5630;49.342;10.802;2024-03-02T00:07:31;24.67;;;18.67;;
11151;SDS011;5630;49.342;10.802;2024-03-02T00:09:57;26.13;;;18.60;;
11151;SDS011;5630;49.342;10.802;2024-03-02T00:12:22;23.77;;;19.13;;
11151;SDS011;5630;49.342;10.802;2024-03-02T00:14:48;25.27;;;19.67;;
11151;SDS011;5630;49.342;10.802;2024-03-02T00:17:17;28.37;;;19.57;;
11151;SDS011;5630;49.342;10.802;2024-03-02T00:19:49;26.20;;;19.60;;
11151;SDS011;5630;49.342;10.802;2024-03-02T00:22:15;26.23;;;19.20;;
11151;SDS011;5630;49.342;10.802;2024-03-02T00:24:40;24.77;;;19.70;;
11151;SDS011;5630;49.342;10.802;2024-03-02T00:27:06;24.83;;;18.47;;
11151;SDS011;5630;49.342;10.802;2024-03-02T00:29:32;25.37;;;17.30;;
11151;SDS011;5630;49.342;10.802;2024-03-02T00:31:59;21.77;;;17.47;;
11151;SDS011;5630;49.342;10.802;2024-03-02T00:34:26;23.37;;;19.03;;
11151;SDS011;5630;49.342;10.802;2024-03-02T00:36:52;22.50;;;17.60;;
11151;SDS011;5630;49.342;10.802;2024-03-02T00:39:17;22.17;;;17.17;;
11151;SDS011;5630;49.342;10.802;2024-03-02T00:41:43;25.73;;;18.00;;
11151;SDS011;5630;49.342;10.802;2024-03-02T00:44:10;23.87;;;18.57;;
11151;SDS011;5630;49.342;10.802;2024-03-02T00:46:38;21.97;;;17.03;;
11151;SDS011;5630;49.342;10.802;2024-03-02T00:49:26;24.80;;;18.03;;
11151;SDS011;5630;49.342;10.802;2024-03-02T00:51:52;22.93;;;18.70;;
11151;SDS011;5630;49.342;10.802;2024-03-02T00:54:27;24.57;;;18.13;;
11151;SDS011;5630;49.342;10.802;2024-03-02T00:56:54;22.00;;;16.60;;
11151;SDS011;5630;49.342;10.802;2024-03-02T00:59:21;21.13;;;17.33;;
11151;SDS011;5630;49.342;10.802;2024-03-02T01:01:47;21.67;;;17.63;;
11151;SDS011;5630;49.342;10.802;2024-03-02T01:04:14;21.60;;;17.23;;
11151;SDS011;5630;49.342;10.802;2024-03-02T01:06:40;25.80;;;18.40;;
11151;SDS011;5630;49.342;10.802;2024-03-02T01:09:07;21.70;;;17.27;;
11151;SDS011;5630;49.342;10.802;2024-03-02T01:11:32;20.87;;;16.90;;
11151;SDS011;5630;49.342;10.802;2024-03-02T01:13:58;22.47;;;17.80;;
11151;SDS011;5630;49.342;10.802;2024-03-02T01:16:23;21.33;;;16.90;;
11151;SDS011;5630;49.342;10.802;2024-03-02T01:18:49;25.23;;;18.23;;
11151;SDS011;5630;49.342;10.802;2024-03-02T01:21:14;21.27;;;17.07;;
11151;SDS011;5630;49.342;10.802;2024-03-02T01:23:40;24.67;;;18.47;;
11151;SDS011;5630;49.342;10.802;2024-03-02T01:26:06;23.53;;;18.13;;
11151;SDS011;5630;49.342;10.802;2024-03-02T01:28:32;23.43;;;18.13;;
11151;SDS011;5630;49.342;10.802;2024-03-02T01:30:58;22.03;;;17.63;;
11151;SDS011;5630;49.342;10.802;2024-03-02T01:33:23;24.73;;;19.17;;
11151;SDS011;5630;49.342;10.802;2024-03-02T01:35:49;22.40;;;17.33;;
11151;SDS011;5630;49.342;10.802;2024-03-02T01:38:14;21.87;;;17.20;;
11151;SDS011;5630;49.342;10.802;2024-03-02T01:40:40;22.23;;;16.80;;
11151;SDS011;5630;49.342;10.802;2024-03-02T01:43:07;21.50;;;17.27;;
11151;SDS011;5630;49.342;10.802;2024-03-02T01:45:32;21.60;;;17.97;;
11151;SDS011;5630;49.342;10.802;2024-03-02T01:47:58;21.77;;;17.63;;
11151;SDS011;5630;49.342;10.802;2024-03-02T01:50:25;20.47;;;16.70;;
11151;SDS011;5630;49.342;10.802;2024-03-02T01:52:52;22.67;;;17.83;;
11151;SDS011;5630;49.342;10.802;2024-03-02T01:55:18;19.97;;;16.70;;
11151;SDS011;5630;49.342;10.802;2024-03-02T01:57:43;22.50;;;17.33;;
11151;SDS011;5630;49.342;10.802;2024-03-02T02:00:10;20.60;;;16.33;;
11151;SDS011;5630;49.342;10.802;2024-03-02T02:02:36;21.43;;;17.40;;
11151;SDS011;5630;49.342;10.802;2024-03-02T02:05:01;22.03;;;17.37;;
11151;SDS011;5630;49.342;10.802;2024-03-02T02:07:27;21.53;;;17.37;;
11151;SDS011;5630;49.342;10.802;2024-03-02T02:09:52;22.13;;;17.17;;
11151;SDS011;5630;49.342;10.802;2024-03-02T02:12:18;21.13;;;16.73;;
11151;SDS011;5630;49.342;10.802;2024-03-02T02:14:47;21.70;;;17.43;;
11151;SDS011;5630;49.342;10.802;2024-03-02T02:17:14;24.60;;;17.70;;
11151;SDS011;5630;49.342;10.802;2024-03-02T02:19:40;22.60;;;17.57;;
11151;SDS011;5630;49.342;10.802;2024-03-02T02:22:06;19.37;;;17.23;;
11151;SDS011;5630;49.342;10.802;2024-03-02T02:24:32;20.67;;;16.37;;
11151;SDS011;5630;49.342;10.802;2024-03-02T02:26:57;19.50;;;16.60;;
11151;SDS011;5630;49.342;10.802;2024-03-02T02:29:23;20.27;;;17.07;;
11151;SDS011;5630;49.342;10.802;2024-03-02T02:31:48;21.70;;;16.70;;
11151;SDS011;5630;49.342;10.802;2024-03-02T02:34:14;20.73;;;17.00;;
11151;SDS011;5630;49.342;10.802;2024-03-02T02:36:40;21.63;;;16.33;;
11151;SDS011;5630;49.342;10.802;2024-03-02T02:39:09;21.07;;;16.70;;
11151;SDS011;5630;49.342;10.802;2024-03-02T02:41:38;22.97;;;17.23;;
11151;SDS011;5630;49.342;10.802;2024-03-02T02:44:04;20.90;;;16.70;;
11151;SDS011;5630;49.342;10.802;2024-03-02T02:46:30;23.67;;;17.37;;
11151;SDS011;5630;49.342;10.802;2024-03-02T02:48:55;20.83;;;15.87;;
11151;SDS011;5630;49.342;10.802;2024-03-02T02:51:21;21.50;;;16.60;;
11151;SDS011;5630;49.342;10.802;2024-03-02T02:53:46;23.40;;;16.50;;
11151;SDS011;5630;49.342;10.802;2024-03-02T02:56:12;20.90;;;15.93;;
11151;SDS011;5630;49.342;10.802;2024-03-02T02:58:38;21.03;;;17.00;;
11151;SDS011;5630;49.342;10.802;2024-03-02T03:01:05;18.20;;;15.63;;
11151;SDS011;5630;49.342;10.802;2024-03-02T03:03:31;18.57;;;15.60;;
11151;SDS011;5630;49.342;10.802;2024-03-02T03:05:56;18.40;;;15.00;;
11151;SDS011;5630;49.342;10.802;2024-03-02T03:08:22;19.83;;;14.93;;
11151;SDS011;5630;49.342;10.802;2024-03-02T03:10:48;17.17;;;14.90;;
11151;SDS011;5630;49.342;10.802;2024-03-02T03:13:14;18.63;;;15.33;;
11151;SDS011;5630;49.342;10.802;2024-03-02T03:15:40;18.50;;;14.97;;
11151;SDS011;5630;49.342;10.802;2024-03-02T03:18:06;20.93;;;14.90;;
11151;SDS011;5630;49.342;10.802;2024-03-02T03:20:32;17.20;;;14.60;;
11151;SDS011;5630;49.342;10.802;2024-03-02T03:22:58;18.30;;;15.27;;
11151;SDS011;5630;49.342;10.802;2024-03-02T03:25:24;17.77;;;15.27;;
11151;SDS011;5630;49.342;10.802;2024-03-02T03:27:50;19.27;;;15.23;;
11151;SDS011;5630;49.342;10.802;2024-03-02T03:30:17;17.90;;;14.70;;
11151;SDS011;5630;49.342;10.802;2024-03-02T03:32:43;17.03;;;14.63;;
11151;SDS011;5630;49.342;10.802;2024-03-02T03:35:09;19.90;;;16.07;;
11151;SDS011;5630;49.342;10.802;2024-03-02T03:37:35;21.20;;;15.20;;
11151;SDS011;5630;49.342;10.802;2024-03-02T03:40:01;19.93;;;16.20;;
11151;SDS011;5630;49.342;10.802;2024-03-02T03:42:27;18.53;;;15.50;;
11151;SDS011;5630;49.342;10.802;2024-03-02T03:44:53;18.23;;;15.03;;
11151;SDS011;5630;49.342;10.802;2024-03-02T03:47:19;20.53;;;15.13;;
11151;SDS011;5630;49.342;10.802;2024-03-02T03:49:45;19.43;;;15.97;;
11151;SDS011;5630;49.342;10.802;2024-03-02T03:52:10;16.63;;;14.67;;
11151;SDS011;5630;49.342;10.802;2024-03-02T03:54:36;18.40;;;15.10;;
11151;SDS011;5630;49.342;10.802;2024-03-02T03:57:03;16.90;;;14.37;;
11151;SDS011;5630;49.342;10.802;2024-03-02T03:59:29;19.23;;;15.63;;
11151;SDS011;5630;49.342;10.802;2024-03-02T04:01:54;17.20;;;14.13;;
11151;SDS011;5630;49.342;10.802;2024-03-02T04:04:20;19.50;;;14.40;;
11151;SDS011;5630;49.342;10.802;2024-03-02T04:06:45;18.23;;;14.03;;
11151;SDS011;5630;49.342;10.802;2024-03-02T04:09:11;18.20;;;14.80;;
11151;SDS011;5630;49.342;10.802;2024-03-02T04:11:37;16.23;;;13.67;;
11151;SDS011;5630;49.342;10.802;2024-03-02T04:14:02;17.63;;;15.50;;
11151;SDS011;5630;49.342;10.802;2024-03-02T04:16:28;17.90;;;13.70;;
11151;SDS011;5630;49.342;10.802;2024-03-02T04:18:54;17.57;;;13.80;;
11151;SDS011;5630;49.342;10.802;2024-03-02T04:21:20;16.83;;;14.10;;
11151;SDS011;5630;49.342;10.802;2024-03-02T04:23:45;17.73;;;14.17;;
11151;SDS011;5630;49.342;10.802;2024-03-02T04:26:11;17.37;;;13.70;;
11151;SDS011;5630;49.342;10.802;2024-03-02T04:28:36;16.13;;;13.50;;
11151;SDS011;5630;49.342;10.802;2024-03-02T04:31:02;17.00;;;14.37;;
11151;SDS011;5630;49.342;10.802;2024-03-02T04:33:27;17.07;;;14.67;;
11151;SDS011;5630;49.342;10.802;2024-03-02T04:35:53;17.47;;;13.80;;
11151;SDS011;5630;49.342;10.802;2024-03-02T04:38:18;17.53;;;14.00;;
11151;SDS011;5630;49.342;10.802;2024-03-02T04:40:44;17.43;;;14.33;;
11151;SDS011;5630;49.342;10.802;2024-03-02T04:43:09;15.77;;;12.93;;
11151;SDS011;5630;49.342;10.802;2024-03-02T04:45:37;14.50;;;12.43;;
11151;SDS011;5630;49.342;10.802;2024-03-02T04:48:03;16.10;;;13.63;;
11151;SDS011;5630;49.342;10.802;2024-03-02T04:50:29;16.90;;;13.97;;
11151;SDS011;5630;49.342;10.802;2024-03-02T04:52:55;16.43;;;13.47;;
11151;SDS011;5630;49.342;10.802;2024-03-02T04:55:20;16.47;;;13.87;;
11151;SDS011;5630;49.342;10.802;2024-03-02T04:58:09;15.70;;;13.47;;
11151;SDS011;5630;49.342;10.802;2024-03-02T05:00:34;20.90;;;15.30;;
11151;SDS011;5630;49.342;10.802;2024-03-02T05:03:00;16.80;;;13.93;;
11151;SDS011;5630;49.342;10.802;2024-03-02T05:05:26;17.50;;;14.47;;
11151;SDS011;5630;49.342;10.802;2024-03-02T05:07:52;17.13;;;14.77;;
11151;SDS011;5630;49.342;10.802;2024-03-02T05:10:18;16.43;;;14.63;;
11151;SDS011;5630;49.342;10.802;2024-03-02T05:12:43;18.87;;;15.37;;
11151;SDS011;5630;49.342;10.802;2024-03-02T05:15:12;20.97;;;15.87;;
11151;SDS011;5630;49.342;10.802;2024-03-02T05:17:39;18.50;;;15.13;;
11151;SDS011;5630;49.342;10.802;2024-03-02T05:20:08;21.83;;;17.67;;
11151;SDS011;5630;49.342;10.802;2024-03-02T05:22:34;21.07;;;16.17;;
11151;SDS011;5630;49.342;10.802;2024-03-02T05:25:00;22.83;;;17.30;;
11151;SDS011;5630;49.342;10.802;2024-03-02T05:27:26;21.67;;;17.07;;
11151;SDS011;5630;49.342;10.802;2024-03-02T05:29:52;23.47;;;18.33;;
11151;SDS011;5630;49.342;10.802;2024-03-02T05:32:18;21.80;;;16.87;;
11151;SDS011;5630;49.342;10.802;2024-03-02T05:34:44;23.53;;;17.27;;
11151;SDS011;5630;49.342;10.802;2024-03-02T05:37:09;23.33;;;18.10;;
11151;SDS011;5630;49.342;10.802;2024-03-02T05:39:35;24.10;;;18.47;;
11151;SDS011;5630;49.342;10.802;2024-03-02T05:42:00;25.00;;;19.53;;
11151;SDS011;5630;49.342;10.802;2024-03-02T05:44:26;24.20;;;18.33;;
11151;SDS011;5630;49.342;10.802;2024-03-02T05:46:52;25.10;;;18.70;;
11151;SDS011;5630;49.342;10.802;2024-03-02T05:49:17;25.50;;;19.60;;
11151;SDS011;5630;49.342;10.802;2024-03-02T05:51:43;23.67;;;18.27;;
11151;SDS011;5630;49.342;10.802;2024-03-02T05:54:08;24.67;;;18.57;;
11151;SDS011;5630;49.342;10.802;2024-03-02T05:56:34;23.07;;;18.30;;
11151;SDS011;5630;49.342;10.802;2024-03-02T05:59:00;25.93;;;18.47;;
11151;SDS011;5630;49.342;10.802;2024-03-02T06:01:46;24.47;;;17.63;;
11151;SDS011;5630;49.342;10.802;2024-03-02T06:04:13;24.03;;;17.77;;
11151;SDS011;5630;49.342;10.802;2024-03-02T06:06:39;24.63;;;18.93;;
11151;SDS011;5630;49.342;10.802;2024-03-02T06:09:05;26.43;;;20.10;;
11151;SDS011;5630;49.342;10.802;2024-03-02T06:11:36;27.23;;;18.63;;
11151;SDS011;5630;49.342;10.802;2024-03-02T06:14:02;24.97;;;18.57;;
11151;SDS011;5630;49.342;10.802;2024-03-02T06:16:28;26.83;;;18.83;;
11151;SDS011;5630;49.342;10.802;2024-03-02T06:18:54;23.73;;;18.10;;
11151;SDS011;5630;49.342;10.802;2024-03-02T06:21:22;25.03;;;18.33;;
11151;SDS011;5630;49.342;10.802;2024-03-02T06:23:48;22.30;;;17.87;;
11151;SDS011;5630;49.342;10.802;2024-03-02T06:26:14;23.37;;;17.90;;
11151;SDS011;5630;49.342;10.802;2024-03-02T06:28:39;21.70;;;17.50;;
11151;SDS011;5630;49.342;10.802;2024-03-02T06:31:05;24.20;;;18.13;;
11151;SDS011;5630;49.342;10.802;2024-03-02T06:33:31;24.20;;;18.83;;
11151;SDS011;5630;49.342;10.802;2024-03-02T06:35:56;24.50;;;18.13;;
11151;SDS011;5630;49.342;10.802;2024-03-02T06:38:22;26.23;;;18.13;;
11151;SDS011;5630;49.342;10.802;2024-03-02T06:40:47;24.77;;;18.57;;
11151;SDS011;5630;49.342;10.802;2024-03-02T06:43:13;23.60;;;17.90;;
11151;SDS011;5630;49.342;10.802;2024-03-02T06:45:38;23.67;;;18.37;;
11151;SDS011;5630;49.342;10.802;2024-03-02T06:48:04;22.20;;;17.97;;
11151;SDS011;5630;49.342;10.802;2024-03-02T06:50:30;21.60;;;17.30;;
11151;SDS011;5630;49.342;10.802;2024-03-02T06:52:55;21.90;;;18.10;;
11151;SDS011;5630;49.342;10.802;2024-03-02T06:55:21;24.67;;;19.23;;
11151;SDS011;5630;49.342;10.802;2024-03-02T06:57:47;22.63;;;18.30;;
11151;SDS011;5630;49.342;10.802;2024-03-02T07:00:13;23.67;;;18.17;;
11151;SDS011;5630;49.342;10.802;2024-03-02T07:02:39;24.07;;;18.47;;
11151;SDS011;5630;49.342;10.802;2024-03-02T07:05:06;21.93;;;18.73;;
11151;SDS011;5630;49.342;10.802;2024-03-02T07:07:33;21.23;;;17.30;;
11151;SDS011;5630;49.342;10.802;2024-03-02T07:09:59;24.73;;;17.30;;
11151;SDS011;5630;49.342;10.802;2024-03-02T07:12:26;22.27;;;17.40;;
11151;SDS011;5630;49.342;10.802;2024-03-02T07:14:51;23.83;;;18.53;;
11151;SDS011;5630;49.342;10.802;2024-03-02T07:17:32;22.20;;;17.93;;
11151;SDS011;5630;49.342;10.802;2024-03-02T07:19:58;21.83;;;17.83;;
11151;SDS011;5630;49.342;10.802;2024-03-02T07:22:23;22.93;;;17.60;;
11151;SDS011;5630;49.342;10.802;2024-03-02T07:24:49;20.43;;;17.30;;
11151;SDS011;5630;49.342;10.802;2024-03-02T07:27:15;20.87;;;16.60;;
11151;SDS011;5630;49.342;10.802;2024-03-02T07:29:41;20.13;;;15.43;;
11151;SDS011;5630;49.342;10.802;2024-03-02T07:32:08;20.03;;;15.93;;
11151;SDS011;5630;49.342;10.802;2024-03-02T07:34:35;22.03;;;17.20;;
11151;SDS011;5630;49.342;10.802;2024-03-02T07:37:02;22.60;;;16.83;;
11151;SDS011;5630;49.342;10.802;2024-03-02T07:39:28;21.53;;;17.83;;
11151;SDS011;5630;49.342;10.802;2024-03-02T07:41:54;20.43;;;16.37;;
11151;SDS011;5630;49.342;10.802;2024-03-02T07:44:20;20.63;;;15.83;;
11151;SDS011;5630;49.342;10.802;2024-03-02T07:46:46;21.43;;;15.70;;
11151;SDS011;5630;49.342;10.802;2024-03-02T07:49:14;18.20;;;15.60;;
11151;SDS011;5630;49.342;10.802;2024-03-02T07:51:40;12.83;;;9.60;;
11151;SDS011;5630;49.342;10.802;2024-03-02T07:54:06;13.80;;;10.17;;
11151;SDS011;5630;49.342;10.802;2024-03-02T07:56:32;16.33;;;12.37;;
11151;SDS011;5630;49.342;10.802;2024-03-02T07:58:58;14.07;;;11.37;;
11151;SDS011;5630;49.342;10.802;2024-03-02T08:01:27;11.40;;;8.80;;
11151;SDS011;5630;49.342;10.802;2024-03-02T08:03:55;13.23;;;11.80;;
11151;SDS011;5630;49.342;10.802;2024-03-02T08:06:23;15.63;;;12.00;;
11151;SDS011;5630;49.342;10.802;2024-03-02T08:08:52;14.07;;;12.07;;
11151;SDS011;5630;49.342;10.802;2024-03-02T08:11:21;13.70;;;11.93;;
11151;SDS011;5630;49.342;10.802;2024-03-02T08:13:48;13.10;;;11.80;;
11151;SDS011;5630;49.342;10.802;2024-03-02T08:16:14;12.97;;;11.57;;
11151;SDS011;5630;49.342;10.802;2024-03-02T08:18:45;13.43;;;12.03;;
11151;SDS011;5630;49.342;10.802;2024-03-02T08:21:11;12.70;;;11.40;;
11151;SDS011;5630;49.342;10.802;2024-03-02T08:23:38;13.20;;;11.57;;
11151;SDS011;5630;49.342;10.802;2024-03-02T08:26:05;13.53;;;11.10;;
11151;SDS011;5630;49.342;10.802;2024-03-02T08:28:31;12.30;;;11.00;;
11151;SDS011;5630;49.342;10.802;2024-03-02T08:30:58;11.53;;;10.33;;
11151;SDS011;5630;49.342;10.802;2024-03-02T08:33:23;11.87;;;10.33;;
11151;SDS011;5630;49.342;10.802;2024-03-02T08:35:49;10.73;;;9.63;;
11151;SDS011;5630;49.342;10.802;2024-03-02T08:38:14;10.77;;;9.07;;
11151;SDS011;5630;49.342;10.802;2024-03-02T08:40:40;10.83;;;9.70;;
11151;SDS011;5630;49.342;10.802;2024-03-02T08:43:06;14.30;;;10.23;;
11151;SDS011;5630;49.342;10.802;2024-03-02T08:45:31;10.13;;;9.13;;
11151;SDS011;5630;49.342;10.802;2024-03-02T08:47:59;10.87;;;9.70;;
11151;SDS011;5630;49.342;10.802;2024-03-02T08:50:24;10.87;;;9.37;;
11151;SDS011;5630;49.342;10.802;2024-03-02T08:52:50;12.80;;;10.10;;
11151;SDS011;5630;49.342;10.802;2024-03-02T08:55:15;13.17;;;10.10;;
11151;SDS011;5630;49.342;10.802;2024-03-02T08:57:41;10.57;;;9.47;;
11151;SDS011;5630;49.342;10.802;2024-03-02T09:00:07;12.07;;;10.70;;
11151;SDS011;5630;49.342;10.802;2024-03-02T09:02:33;13.13;;;9.67;;
11151;SDS011;5630;49.342;10.802;2024-03-02T09:04:59;10.00;;;8.73;;
11151;SDS011;5630;49.342;10.802;2024-03-02T09:07:25;11.00;;;9.63;;
11151;SDS011;5630;49.342;10.802;2024-03-02T09:09:50;11.97;;;9.00;;
11151;SDS011;5630;49.342;10.802;2024-03-02T09:12:17;11.07;;;8.63;;
11151;SDS011;5630;49.342;10.802;2024-03-02T09:14:43;10.73;;;7.93;;
11151;SDS011;5630;49.342;10.802;2024-03-02T09:17:09;10.27;;;7.73;;
11151;SDS011;5630;49.342;10.802;2024-03-02T09:19:36;10.13;;;8.17;;
11151;SDS011;5630;49.342;10.802;2024-03-02T09:22:02;11.57;;;8.60;;
11151;SDS011;5630;49.342;10.802;2024-03-02T09:24:28;10.27;;;8.40;;
11151;SDS011;5630;49.342;10.802;2024-03-02T09:26:53;9.70;;;8.30;;
11151;SDS011;5630;49.342;10.802;2024-03-02T09:29:19;9.67;;;8.57;;
11151;SDS011;5630;49.342;10.802;2024-03-02T09:31:45;10.73;;;8.07;;
11151;SDS011;5630;49.342;10.802;2024-03-02T09:34:12;8.50;;;7.37;;
11151;SDS011;5630;49.342;10.802;2024-03-02T09:36:37;9.03;;;8.13;;
11151;SDS011;5630;49.342;10.802;2024-03-02T09:39:03;8.97;;;7.93;;
11151;SDS011;5630;49.342;10.802;2024-03-02T09:41:29;11.63;;;7.73;;
11151;SDS011;5630;49.342;10.802;2024-03-02T09:43:54;14.20;;;7.73;;
11151;SDS011;5630;49.342;10.802;2024-03-02T09:46:20;8.57;;;7.23;;
11151;SDS011;5630;49.342;10.802;2024-03-02T09:48:46;7.80;;;7.00;;
11151;SDS011;5630;49.342;10.802;2024-03-02T09:51:11;9.67;;;7.50;;
11151;SDS011;5630;49.342;10.802;2024-03-02T09:53:38;8.77;;;7.03;;
11151;SDS011;5630;49.342;10.802;2024-03-02T09:56:04;11.17;;;7.77;;
11151;SDS011;5630;49.342;10.802;2024-03-02T09:58:30;8.70;;;7.30;;
11151;SDS011;5630;49.342;10.802;2024-03-02T10:00:55;8.07;;;6.80;;
11151;SDS011;5630;49.342;10.802;2024-03-02T10:03:23;12.23;;;7.57;;
11151;SDS011;5630;49.342;10.802;2024-03-02T10:05:51;8.20;;;7.17;;
11151;SDS011;5630;49.342;10.802;2024-03-02T10:08:17;8.33;;;7.10;;
11151;SDS011;5630;49.342;10.802;2024-03-02T10:10:43;9.87;;;7.63;;
11151;SDS011;5630;49.342;10.802;2024-03-02T10:13:09;7.23;;;6.53;;
11151;SDS011;5630;49.342;10.802;2024-03-02T10:15:37;7.83;;;7.03;;
11151;SDS011;5630;49.342;10.802;2024-03-02T10:18:06;10.50;;;7.80;;
11151;SDS011;5630;49.342;10.802;2024-03-02T10:20:37;10.33;;;7.50;;
11151;SDS011;5630;49.342;10.802;2024-03-02T10:23:12;9.80;;;8.07;;
11151;SDS011;5630;49.342;10.802;2024-03-02T10:25:39;7.83;;;7.03;;
11151;SDS011;5630;49.342;10.802;2024-03-02T10:28:05;9.10;;;7.10;;
11151;SDS011;5630;49.342;10.802;2024-03-02T10:30:32;9.93;;;7.50;;
11151;SDS011;5630;49.342;10.802;2024-03-02T10:33:00;8.40;;;7.47;;
11151;SDS011;5630;49.342;10.802;2024-03-02T10:35:27;9.57;;;7.27;;
11151;SDS011;5630;49.342;10.802;2024-03-02T10:37:52;7.60;;;6.80;;
11151;SDS011;5630;49.342;10.802;2024-03-02T10:40:18;10.50;;;8.03;;
11151;SDS011;5630;49.342;10.802;2024-03-02T10:42:46;8.63;;;7.73;;
11151;SDS011;5630;49.342;10.802;2024-03-02T10:45:13;10.13;;;8.07;;
11151;SDS011;5630;49.342;10.802;2024-03-02T10:47:41;9.90;;;7.80;;
11151;SDS011;5630;49.342;10.802;2024-03-02T10:50:08;10.17;;;7.50;;
11151;SDS011;5630;49.342;10.802;2024-03-02T10:52:34;8.83;;;7.67;;
11151;SDS011;5630;49.342;10.802;2024-03-02T10:55:00;15.23;;;8.63;;
11151;SDS011;5630;49.342;10.802;2024-03-02T10:57:26;11.47;;;8.10;;
11151;SDS011;5630;49.342;10.802;2024-03-02T10:59:57;10.70;;;8.00;;
11151;SDS011;5630;49.342;10.802;2024-03-02T11:02:27;10.87;;;8.20;;
11151;SDS011;5630;49.342;10.802;2024-03-02T11:04:55;10.33;;;7.50;;
11151;SDS011;5630;49.342;10.802;2024-03-02T11:07:25;10.63;;;8.17;;
11151;SDS011;5630;49.342;10.802;2024-03-02T11:10:01;9.40;;;7.90;;
11151;SDS011;5630;49.342;10.802;2024-03-02T11:12:35;8.67;;;7.13;;
11151;SDS011;5630;49.342;10.802;2024-03-02T11:15:11;8.83;;;7.57;;
11151;SDS011;5630;49.342;10.802;2024-03-02T11:17:39;11.63;;;7.53;;
11151;SDS011;5630;49.342;10.802;2024-03-02T11:20:05;8.93;;;7.13;;
11151;SDS011;5630;49.342;10.802;2024-03-02T11:22:34;8.27;;;7.13;;
11151;SDS011;5630;49.342;10.802;2024-03-02T11:25:04;8.47;;;7.37;;
11151;SDS011;5630;49.342;10.802;2024-03-02T11:33:09;8.47;;;7.63;;
11151;SDS011;5630;49.342;10.802;2024-03-02T11:35:36;8.43;;;7.53;;
11151;SDS011;5630;49.342;10.802;2024-03-02T11:38:12;8.93;;;7.87;;
11151;SDS011;5630;49.342;10.802;2024-03-02T11:40:40;11.73;;;9.47;;
11151;SDS011;5630;49.342;10.802;2024-03-02T11:43:06;10.83;;;9.17;;
11151;SDS011;5630;49.342;10.802;2024-03-02T11:45:36;11.33;;;9.77;;
11151;SDS011;5630;49.342;10.802;2024-03-02T11:48:05;13.07;;;9.73;;
11151;SDS011;5630;49.342;10.802;2024-03-02T11:50:35;9.80;;;8.80;;
11151;SDS011;5630;49.342;10.802;2024-03-02T11:53:07;14.53;;;9.50;;
11151;SDS011;5630;49.342;10.802;2024-03-02T11:55:35;11.67;;;9.07;;
11151;SDS011;5630;49.342;10.802;2024-03-02T11:58:02;10.03;;;8.90;;
11151;SDS011;5630;49.342;10.802;2024-03-02T12:00:28;12.23;;;8.80;;
11151;SDS011;5630;49.342;10.802;2024-03-02T12:03:01;10.23;;;8.10;;
11151;SDS011;5630;49.342;10.802;2024-03-02T12:05:27;11.00;;;8.57;;
11151;SDS011;5630;49.342;10.802;2024-03-02T12:08:00;16.03;;;7.83;;
11151;SDS011;5630;49.342;10.802;2024-03-02T12:10:27;9.93;;;8.37;;
11151;SDS011;5630;49.342;10.802;2024-03-02T12:12:59;9.37;;;8.37;;
11151;SDS011;5630;49.342;10.802;2024-03-02T12:15:27;8.87;;;7.97;;
11151;SDS011;5630;49.342;10.802;2024-03-02T12:17:57;11.43;;;7.83;;
11151;SDS011;5630;49.342;10.802;2024-03-02T12:20:25;8.47;;;7.57;;
11151;SDS011;5630;49.342;10.802;2024-03-02T12:22:52;6.97;;;6.10;;
11151;SDS011;5630;49.342;10.802;2024-03-02T12:25:19;6.93;;;6.23;;
11151;SDS011;5630;49.342;10.802;2024-03-02T12:27:46;7.90;;;6.47;;
11151;SDS011;5630;49.342;10.802;2024-03-02T12:30:13;8.37;;;6.73;;
11151;SDS011;5630;49.342;10.802;2024-03-02T12:32:39;8.10;;;6.63;;
11151;SDS011;5630;49.342;10.802;2024-03-02T12:35:06;9.73;;;7.17;;
11151;SDS011;5630;49.342;10.802;2024-03-02T12:37:31;8.70;;;7.80;;
11151;SDS011;5630;49.342;10.802;2024-03-02T12:39:57;10.40;;;8.13;;
11151;SDS011;5630;49.342;10.802;2024-03-02T12:42:23;9.00;;;7.70;;
11151;SDS011;5630;49.342;10.802;2024-03-02T12:44:52;9.67;;;8.33;;
11151;SDS011;5630;49.342;10.802;2024-03-02T12:47:19;9.37;;;8.10;;
11151;SDS011;5630;49.342;10.802;2024-03-02T12:49:45;11.40;;;10.20;;
11151;SDS011;5630;49.342;10.802;2024-03-02T12:52:14;11.73;;;10.53;;
11151;SDS011;5630;49.342;10.802;2024-03-02T12:54:40;11.90;;;10.70;;
11151;SDS011;5630;49.342;10.802;2024-03-02T12:57:05;12.47;;;10.17;;
11151;SDS011;5630;49.342;10.802;2024-03-02T12:59:31;13.77;;;11.37;;
11151;SDS011;5630;49.342;10.802;2024-03-02T13:01:57;13.37;;;11.23;;
11151;SDS011;5630;49.342;10.802;2024-03-02T13:04:26;16.63;;;12.70;;
11151;SDS011;5630;49.342;10.802;2024-03-02T13:06:53;14.60;;;12.20;;
11151;SDS011;5630;49.342;10.802;2024-03-02T13:09:22;14.27;;;12.77;;
11151;SDS011;5630;49.342;10.802;2024-03-02T13:11:48;15.30;;;12.80;;
11151;SDS011;5630;49.342;10.802;2024-03-02T13:14:14;17.77;;;13.30;;
11151;SDS011;5630;49.342;10.802;2024-03-02T13:16:40;15.37;;;13.63;;
11151;SDS011;5630;49.342;10.802;2024-03-02T13:19:10;16.07;;;13.43;;
11151;SDS011;5630;49.342;10.802;2024-03-02T13:21:37;16.83;;;14.60;;
11151;SDS011;5630;49.342;10.802;2024-03-02T13:24:03;17.30;;;14.43;;
11151;SDS011;5630;49.342;10.802;2024-03-02T13:26:29;15.87;;;13.43;;
11151;SDS011;5630;49.342;10.802;2024-03-02T13:28:55;16.53;;;14.53;;
11151;SDS011;5630;49.342;10.802;2024-03-02T13:31:20;16.27;;;13.77;;
11151;SDS011;5630;49.342;10.802;2024-03-02T13:33:46;18.87;;;14.80;;
11151;SDS011;5630;49.342;10.802;2024-03-02T13:36:12;16.93;;;14.23;;
11151;SDS011;5630;49.342;10.802;2024-03-02T13:38:37;16.17;;;13.30;;
11151;SDS011;5630;49.342;10.802;2024-03-02T13:41:03;16.90;;;13.37;;
11151;SDS011;5630;49.342;10.802;2024-03-02T13:43:29;17.63;;;14.27;;
11151;SDS011;5630;49.342;10.802;2024-03-02T13:45:57;17.40;;;14.27;;
11151;SDS011;5630;49.342;10.802;2024-03-02T13:48:23;20.40;;;14.87;;
11151;SDS011;5630;49.342;10.802;2024-03-02T13:50:51;17.03;;;13.83;;
11151;SDS011;5630;49.342;10.802;2024-03-02T13:53:18;15.87;;;13.67;;
11151;SDS011;5630;49.342;10.802;2024-03-02T13:55:43;17.37;;;14.13;;
11151;SDS011;5630;49.342;10.802;2024-03-02T13:58:09;16.97;;;14.20;;
11151;SDS011;5630;49.342;10.802;2024-03-02T14:00:36;15.47;;;13.43;;
11151;SDS011;5630;49.342;10.802;2024-03-02T14:03:03;18.17;;;13.37;;
11151;SDS011;5630;49.342;10.802;2024-03-02T14:05:30;21.20;;;14.23;;
11151;SDS011;5630;49.342;10.802;2024-03-02T14:07:55;15.90;;;13.87;;
11151;SDS011;5630;49.342;10.802;2024-03-02T14:10:21;18.40;;;14.17;;
11151;SDS011;5630;49.342;10.802;2024-03-02T14:12:48;19.83;;;14.90;;
11151;SDS011;5630;49.342;10.802;2024-03-02T14:15:13;19.27;;;14.50;;
11151;SDS011;5630;49.342;10.802;2024-03-02T14:17:40;19.23;;;14.40;;
11151;SDS011;5630;49.342;10.802;2024-03-02T14:20:05;17.50;;;14.03;;
11151;SDS011;5630;49.342;10.802;2024-03-02T14:22:32;17.70;;;15.07;;
11151;SDS011;5630;49.342;10.802;2024-03-02T14:24:58;18.97;;;14.50;;
11151;SDS011;5630;49.342;10.802;2024-03-02T14:27:24;18.60;;;14.00;;